Reinholds, Pennsylvania
Current Conditions -  °F | °C
As of 1:54 PM on Saturday 25 Oct 2014 (Local Time) from KRDG Reporting Station
Clear Clear  
Wind Chill: 68°   Ceiling: Unl
Heat Index: 68°   Visibility: 10mi
Dew Point: 44°   Wind: 12mph
Humidity: 42%   Direction: 240°WSW
Pressure: 29.77"   Gusts: 21mph
Location:  40.27°N, 76.12°W
Report Text: KRDG 251754Z AUTO 24010G18KT 10SM CLR 20/07 A2977 RMK AO2 SLP085 T02000067 10200 20056 58034
Loading
Personal Weather Stations






























Interactive Weather Map
Tropical Storm Tracking
New forecast layout! Learn more

10-Day Weather Forecast

Advertisements
Track Severe Weather on mobile